createdAt,value
2018-09-20T00:00:14.061Z,99.90
2018-09-20T00:02:42.599Z,99.90
2018-09-20T00:05:11.022Z,99.90
2018-09-20T00:07:39.568Z,99.90
2018-09-20T00:10:08.082Z,99.90
2018-09-20T00:12:36.648Z,99.90
2018-09-20T00:15:05.371Z,99.90
2018-09-20T00:17:33.824Z,99.90
2018-09-20T00:20:02.627Z,99.90
2018-09-20T00:22:31.174Z,99.90
2018-09-20T00:24:59.621Z,99.90
2018-09-20T00:27:28.071Z,99.90
2018-09-20T00:29:56.531Z,99.90
2018-09-20T00:32:24.971Z,99.90
2018-09-20T00:34:53.486Z,99.90
2018-09-20T00:37:21.982Z,99.90
2018-09-20T00:39:50.518Z,93.10
2018-09-20T00:42:18.995Z,88.30
2018-09-20T00:44:47.430Z,87.60
2018-09-20T00:47:15.894Z,94.40
2018-09-20T00:49:44.470Z,98.00
2018-09-20T00:52:12.967Z,99.90
2018-09-20T00:54:41.425Z,99.90
2018-09-20T00:57:09.863Z,99.90
2018-09-20T00:59:38.327Z,99.90
2018-09-20T01:02:06.778Z,99.90
2018-09-20T01:04:35.251Z,92.00
2018-09-20T01:07:03.902Z,73.50
2018-09-20T01:09:32.358Z,69.40
2018-09-20T01:12:00.826Z,79.70
2018-09-20T01:14:29.310Z,90.80
2018-09-20T01:16:57.771Z,91.40
2018-09-20T01:19:26.198Z,87.60
2018-09-20T01:21:54.736Z,84.20
2018-09-20T01:24:23.188Z,95.90
2018-09-20T01:26:52.680Z,93.00
2018-09-20T01:29:21.145Z,96.70
2018-09-20T01:31:49.583Z,99.90
2018-09-20T01:34:18.019Z,99.90
2018-09-20T01:36:46.511Z,99.90
2018-09-20T01:39:15.944Z,99.90
2018-09-20T01:41:44.451Z,99.90
2018-09-20T01:44:13.379Z,99.90
2018-09-20T01:46:42.067Z,99.90
2018-09-20T01:49:10.607Z,99.90
2018-09-20T01:51:39.182Z,99.90
2018-09-20T01:54:07.629Z,99.90
2018-09-20T01:56:36.113Z,99.90
2018-09-20T01:59:04.596Z,99.90
2018-09-20T02:01:33.050Z,99.90
2018-09-20T02:04:01.496Z,99.90
2018-09-20T02:06:29.946Z,99.90
2018-09-20T02:08:58.398Z,99.90
2018-09-20T02:11:26.883Z,99.90
2018-09-20T02:13:55.374Z,99.90
2018-09-20T02:16:23.824Z,99.90
2018-09-20T02:18:52.313Z,99.90
2018-09-20T02:21:20.765Z,99.90
2018-09-20T02:23:49.242Z,99.90
2018-09-20T02:26:17.696Z,99.90
2018-09-20T02:28:46.482Z,99.90
2018-09-20T02:31:14.918Z,99.90
2018-09-20T02:33:43.375Z,99.90
2018-09-20T02:36:11.859Z,99.90
2018-09-20T02:38:40.439Z,99.90
2018-09-20T02:41:09.290Z,99.90
2018-09-20T02:43:37.877Z,99.90
2018-09-20T02:46:06.318Z,99.90
2018-09-20T02:48:35.032Z,99.90
2018-09-20T02:51:03.563Z,99.90
2018-09-20T02:53:32.008Z,99.90
2018-09-20T02:56:00.511Z,99.90
2018-09-20T02:58:29.034Z,99.90
2018-09-20T03:00:57.482Z,99.90
2018-09-20T03:03:25.933Z,99.90
2018-09-20T03:05:54.395Z,99.90
2018-09-20T03:08:22.863Z,99.90
2018-09-20T03:14:29.018Z,99.90
2018-09-20T03:16:57.716Z,99.90
2018-09-20T03:19:26.155Z,99.90
2018-09-20T03:21:54.614Z,99.90
2018-09-20T03:24:23.118Z,99.90
2018-09-20T03:26:51.611Z,99.90
2018-09-20T03:29:20.091Z,99.90
2018-09-20T03:31:48.534Z,99.90
2018-09-20T03:34:17.024Z,99.90
2018-09-20T03:36:45.516Z,99.90
2018-09-20T03:39:14.007Z,99.90
2018-09-20T03:41:42.455Z,99.90
2018-09-20T03:44:10.903Z,99.90
2018-09-20T03:46:39.374Z,99.90
2018-09-20T03:49:07.826Z,99.90
2018-09-20T03:51:36.323Z,99.90
2018-09-20T03:54:04.781Z,99.90
2018-09-20T03:56:33.439Z,99.90
2018-09-20T03:59:01.885Z,99.90
2018-09-20T04:01:30.363Z,99.90
2018-09-20T04:03:58.936Z,99.90
2018-09-20T04:06:27.408Z,99.90
2018-09-20T04:08:55.876Z,99.90
2018-09-20T04:11:24.394Z,99.90
2018-09-20T04:13:52.851Z,99.90
2018-09-20T04:16:21.332Z,99.90
2018-09-20T04:18:49.851Z,99.90
2018-09-20T04:21:34.226Z,99.90
2018-09-20T04:24:04.755Z,99.90
2018-09-20T04:26:33.353Z,99.90
2018-09-20T04:29:02.105Z,99.90
2018-09-20T04:31:31.139Z,99.90
2018-09-20T04:34:00.738Z,99.90
2018-09-20T04:36:29.810Z,99.90
2018-09-20T04:38:58.439Z,99.90
2018-09-20T04:41:26.927Z,99.90
2018-09-20T04:43:55.415Z,99.90
2018-09-20T04:46:23.917Z,99.90
2018-09-20T04:48:52.407Z,99.90
2018-09-20T04:51:20.890Z,99.90
2018-09-20T04:53:49.391Z,99.90
2018-09-20T04:56:17.875Z,99.90
2018-09-20T04:58:46.428Z,99.90
2018-09-20T05:01:14.914Z,99.90
2018-09-20T05:03:43.374Z,99.90
2018-09-20T05:06:11.821Z,99.90
2018-09-20T05:08:40.302Z,99.90
2018-09-20T05:11:09.022Z,99.90
2018-09-20T05:13:37.527Z,99.90
2018-09-20T05:16:06.001Z,99.90
2018-09-20T05:18:34.477Z,99.90
2018-09-20T05:21:02.929Z,99.90
2018-09-20T05:23:31.417Z,99.90
2018-09-20T05:25:59.911Z,99.90
2018-09-20T05:28:28.469Z,99.90
2018-09-20T05:30:56.958Z,99.90
2018-09-20T05:33:25.458Z,99.90
2018-09-20T05:35:53.950Z,99.90
2018-09-20T05:38:22.415Z,99.90
2018-09-20T05:40:51.002Z,99.90
2018-09-20T05:43:19.723Z,99.90
2018-09-20T05:45:48.386Z,99.90
2018-09-20T05:48:17.145Z,99.90
2018-09-20T05:50:45.907Z,99.90
2018-09-20T05:53:14.391Z,99.90
2018-09-20T05:55:42.868Z,99.90
2018-09-20T05:58:11.370Z,99.90
2018-09-20T06:00:39.872Z,99.90
2018-09-20T06:03:08.335Z,99.90
2018-09-20T06:05:36.833Z,99.90
2018-09-20T06:08:05.330Z,99.90
2018-09-20T06:10:33.799Z,99.90
2018-09-20T06:13:08.114Z,99.90
2018-09-20T06:15:37.017Z,99.90
2018-09-20T06:18:06.002Z,99.90
2018-09-20T06:20:34.886Z,99.90
2018-09-20T06:23:03.669Z,99.90
2018-09-20T06:25:32.590Z,99.90
2018-09-20T06:28:03.769Z,99.90
2018-09-20T06:30:32.688Z,98.00
2018-09-20T06:33:01.543Z,96.70
2018-09-20T06:35:30.767Z,94.30
2018-09-20T06:37:59.597Z,90.10
2018-09-20T06:40:28.450Z,73.20
2018-09-20T06:42:57.282Z,58.10
2018-09-20T06:45:26.147Z,42.70
2018-09-20T06:47:54.992Z,17.10
2018-09-20T06:50:24.005Z,16.10
2018-09-20T06:52:52.896Z,5.30
2018-09-20T06:55:21.800Z,1.00
2018-09-20T06:57:50.700Z,1.00
2018-09-20T07:00:19.577Z,1.00
2018-09-20T07:02:48.447Z,1.00
2018-09-20T07:05:17.307Z,1.00
2018-09-20T07:07:46.184Z,1.00
2018-09-20T07:10:15.054Z,1.00
2018-09-20T07:12:43.961Z,1.00
2018-09-20T07:15:12.902Z,1.00
2018-09-20T07:17:41.860Z,99.90
2018-09-20T07:20:10.958Z,99.90
2018-09-20T07:22:39.835Z,99.90
2018-09-20T07:25:08.761Z,99.90
2018-09-20T07:27:37.656Z,99.90
2018-09-20T07:30:06.749Z,1.00
2018-09-20T07:32:35.547Z,99.90
2018-09-20T07:35:04.446Z,99.90
2018-09-20T07:37:33.322Z,99.90
2018-09-20T07:40:02.155Z,1.00
2018-09-20T07:42:30.944Z,1.00
2018-09-20T07:44:59.872Z,1.00
2018-09-20T07:47:28.769Z,1.00
2018-09-20T07:49:57.573Z,99.90
2018-09-20T07:52:26.587Z,99.90
2018-09-20T07:54:55.445Z,1.00
2018-09-20T07:57:26.070Z,10.00
2018-09-20T07:59:55.082Z,92.00
2018-09-20T08:02:24.574Z,99.90
2018-09-20T08:04:53.606Z,99.90
2018-09-20T08:07:22.514Z,99.90
2018-09-20T08:09:51.484Z,99.90
2018-09-20T08:12:20.340Z,99.90
2018-09-20T08:14:49.243Z,99.90
2018-09-20T08:17:18.145Z,99.90
2018-09-20T08:19:47.089Z,99.90
2018-09-20T08:22:16.015Z,99.90
2018-09-20T08:24:45.083Z,99.90
2018-09-20T08:27:13.926Z,99.90
2018-09-20T08:29:42.830Z,99.90
2018-09-20T08:32:11.648Z,99.90
2018-09-20T08:34:40.507Z,99.90
2018-09-20T08:37:09.510Z,99.90
2018-09-20T08:39:38.350Z,99.90
2018-09-20T08:42:07.427Z,99.90
2018-09-20T08:44:36.171Z,99.90
2018-09-20T08:47:05.108Z,99.90
2018-09-20T08:49:34.032Z,99.90
2018-09-20T08:52:02.975Z,99.90
2018-09-20T08:54:31.918Z,99.90
2018-09-20T08:57:00.842Z,99.90
2018-09-20T08:59:29.643Z,99.90
2018-09-20T09:01:58.687Z,99.90
2018-09-20T09:04:27.468Z,99.90
2018-09-20T09:06:56.360Z,99.90
2018-09-20T09:09:25.296Z,99.90
2018-09-20T09:11:54.288Z,99.90
2018-09-20T09:14:23.036Z,99.90
2018-09-20T09:16:51.856Z,99.90
2018-09-20T09:19:20.756Z,99.90
2018-09-20T09:21:49.689Z,99.90
2018-09-20T09:24:18.502Z,99.90
2018-09-20T09:26:47.330Z,99.90
2018-09-20T09:29:16.202Z,99.90
2018-09-20T09:31:44.997Z,99.90
2018-09-20T09:34:14.264Z,99.90
2018-09-20T09:36:43.082Z,99.90
2018-09-20T09:39:13.273Z,99.90
2018-09-20T09:41:42.871Z,99.90
2018-09-20T09:44:11.707Z,99.90
2018-09-20T09:46:40.750Z,99.90
2018-09-20T09:49:09.643Z,99.90
2018-09-20T09:51:38.509Z,99.90
2018-09-20T09:54:07.757Z,99.90
2018-09-20T09:56:36.587Z,99.90
2018-09-20T09:59:05.561Z,99.90
2018-09-20T10:01:34.392Z,99.90
2018-09-20T10:04:03.324Z,99.90
2018-09-20T10:06:32.185Z,99.90
2018-09-20T10:09:01.145Z,99.90
2018-09-20T10:11:30.033Z,99.90
2018-09-20T10:13:59.077Z,99.90
2018-09-20T10:16:27.988Z,99.90
2018-09-20T10:18:56.928Z,99.90
2018-09-20T10:21:25.502Z,99.90
2018-09-20T10:23:53.988Z,99.90
2018-09-20T10:26:22.454Z,99.90
2018-09-20T10:28:50.950Z,99.90
2018-09-20T10:31:19.457Z,99.90
2018-09-20T10:33:47.964Z,99.90
2018-09-20T10:36:16.472Z,99.90
2018-09-20T10:38:44.978Z,99.90
2018-09-20T10:41:13.456Z,99.90
2018-09-20T10:43:41.920Z,99.90
2018-09-20T10:46:10.407Z,99.90
2018-09-20T10:48:38.873Z,99.90
2018-09-20T10:51:07.394Z,99.90
2018-09-20T10:53:35.947Z,99.90
2018-09-20T10:56:04.579Z,99.90
2018-09-20T10:58:33.072Z,99.90
2018-09-20T11:01:01.539Z,99.90
2018-09-20T11:03:30.043Z,99.90
2018-09-20T11:05:58.530Z,99.90
2018-09-20T11:08:27.005Z,99.90
2018-09-20T11:10:55.541Z,99.90
2018-09-20T11:13:24.018Z,99.90
2018-09-20T11:15:52.540Z,99.90
2018-09-20T11:18:21.021Z,99.90
2018-09-20T11:20:49.536Z,99.90
2018-09-20T11:23:18.006Z,99.90
2018-09-20T11:25:46.545Z,99.90
2018-09-20T11:28:15.010Z,99.90
2018-09-20T11:30:43.567Z,99.90
2018-09-20T11:33:12.030Z,99.90
2018-09-20T11:35:40.544Z,99.90
2018-09-20T11:38:09.011Z,99.90
2018-09-20T11:40:37.558Z,99.90
2018-09-20T11:43:06.134Z,99.90
2018-09-20T11:45:34.569Z,99.90
2018-09-20T11:48:03.074Z,99.90
2018-09-20T11:50:31.576Z,99.90
2018-09-20T11:53:00.046Z,99.90
2018-09-20T11:55:28.563Z,99.90
2018-09-20T11:57:57.043Z,99.90
2018-09-20T12:00:25.534Z,99.90
2018-09-20T12:02:54.019Z,99.90
2018-09-20T12:05:22.940Z,99.90
2018-09-20T12:07:51.432Z,99.90
2018-09-20T12:10:20.130Z,99.90
2018-09-20T12:12:48.771Z,99.90
2018-09-20T12:15:17.725Z,99.90
2018-09-20T12:17:46.585Z,99.90
2018-09-20T12:20:15.519Z,99.90
2018-09-20T12:22:44.364Z,99.90
2018-09-20T12:25:13.292Z,99.90
2018-09-20T12:27:42.129Z,99.90
2018-09-20T12:30:11.061Z,99.90
2018-09-20T12:32:39.969Z,99.90
2018-09-20T12:35:08.775Z,99.90
2018-09-20T12:37:38.778Z,99.90
2018-09-20T12:40:08.785Z,99.90
2018-09-20T12:42:37.578Z,99.90
2018-09-20T12:45:06.616Z,99.90
2018-09-20T12:47:35.409Z,99.90
2018-09-20T12:50:04.354Z,99.90
2018-09-20T12:52:33.174Z,99.90
2018-09-20T12:55:02.064Z,99.90
2018-09-20T12:57:30.890Z,99.90
2018-09-20T13:00:00.063Z,99.90
2018-09-20T13:02:28.916Z,99.90
2018-09-20T13:04:57.754Z,99.90
2018-09-20T13:07:26.581Z,99.90
2018-09-20T13:09:55.467Z,99.90
2018-09-20T13:12:24.278Z,99.90
2018-09-20T13:14:53.112Z,99.90
2018-09-20T13:17:22.023Z,99.90
2018-09-20T13:19:50.921Z,99.90
2018-09-20T13:22:19.757Z,99.90
2018-09-20T13:24:48.587Z,99.90
2018-09-20T13:27:17.357Z,99.90
2018-09-20T13:29:46.190Z,99.90
2018-09-20T13:32:14.943Z,99.90
2018-09-20T13:34:43.814Z,99.90
2018-09-20T13:37:13.026Z,99.90
2018-09-20T13:39:41.860Z,99.90
2018-09-20T13:42:10.682Z,99.90
2018-09-20T13:44:39.529Z,99.90
2018-09-20T13:47:08.425Z,99.90
2018-09-20T13:49:37.197Z,99.90
2018-09-20T13:52:06.290Z,99.90
2018-09-20T13:54:35.046Z,99.90
2018-09-20T13:57:03.826Z,99.90
2018-09-20T13:59:32.613Z,99.90
2018-09-20T14:02:01.443Z,99.90
2018-09-20T14:04:30.229Z,99.90
2018-09-20T14:06:59.071Z,99.90
2018-09-20T14:09:27.842Z,99.90
2018-09-20T14:11:56.705Z,99.90
2018-09-20T14:15:00.037Z,99.90
2018-09-20T14:17:28.936Z,99.90
2018-09-20T14:19:57.710Z,99.90
2018-09-20T14:22:26.523Z,99.90
2018-09-20T14:24:55.000Z,99.90
2018-09-20T14:27:23.778Z,99.90
2018-09-20T14:29:52.622Z,99.90
2018-09-20T14:32:21.394Z,99.90
2018-09-20T14:34:50.259Z,99.90
2018-09-20T14:37:19.032Z,99.90
2018-09-20T14:39:47.529Z,99.90
2018-09-20T14:42:15.990Z,99.90
2018-09-20T14:44:44.472Z,99.90
2018-09-20T14:47:13.314Z,99.90
2018-09-20T14:49:42.157Z,99.90
2018-09-20T14:52:11.014Z,99.90
2018-09-20T14:54:39.856Z,99.90
2018-09-20T14:57:08.676Z,99.90
2018-09-20T14:59:37.498Z,99.90
2018-09-20T15:02:06.373Z,99.90
2018-09-20T15:04:35.263Z,99.90
2018-09-20T15:07:04.125Z,99.90
2018-09-20T15:09:32.943Z,99.90
2018-09-20T15:12:01.797Z,99.90
2018-09-20T15:14:30.622Z,99.90
2018-09-20T15:16:59.458Z,99.90
2018-09-20T15:19:28.265Z,99.90
2018-09-20T15:21:57.140Z,99.90
2018-09-20T15:24:26.049Z,99.90
2018-09-20T15:26:55.049Z,99.90
2018-09-20T15:29:23.923Z,99.90
2018-09-20T15:31:52.755Z,99.90
2018-09-20T15:34:21.280Z,99.90
2018-09-20T15:36:50.054Z,99.90
2018-09-20T15:39:18.915Z,99.90
2018-09-20T15:41:47.819Z,99.90
2018-09-20T15:44:16.665Z,99.90
2018-09-20T15:46:45.485Z,99.90
2018-09-20T15:49:14.405Z,99.90
2018-09-20T15:51:43.215Z,99.90
2018-09-20T15:54:12.032Z,99.90
2018-09-20T15:56:40.813Z,99.90
2018-09-20T15:59:09.651Z,99.90
2018-09-20T16:01:38.418Z,99.90
2018-09-20T16:04:07.198Z,99.90
2018-09-20T16:06:36.012Z,99.90
2018-09-20T16:09:07.767Z,99.90
2018-09-20T16:11:36.499Z,99.90
2018-09-20T16:14:05.383Z,99.90
2018-09-20T16:16:34.212Z,99.90
2018-09-20T16:19:03.043Z,99.90
2018-09-20T16:21:31.684Z,99.90
2018-09-20T16:24:00.188Z,99.90
2018-09-20T16:26:28.694Z,99.90
2018-09-20T16:29:10.074Z,99.90
2018-09-20T16:33:22.226Z,99.90
2018-09-20T16:36:00.175Z,99.90
2018-09-20T16:38:40.791Z,99.90
2018-09-20T16:41:10.736Z,99.90
2018-09-20T16:43:39.191Z,99.90
2018-09-20T16:46:07.700Z,99.90
2018-09-20T16:48:36.189Z,99.90
2018-09-20T16:51:04.691Z,99.90
2018-09-20T16:53:33.201Z,99.90
2018-09-20T16:56:01.640Z,99.90
2018-09-20T16:58:30.216Z,99.90
2018-09-20T17:00:58.708Z,99.90
2018-09-20T17:03:27.584Z,99.90
2018-09-20T17:05:56.494Z,99.90
2018-09-20T17:08:25.277Z,99.90
2018-09-20T17:10:54.116Z,99.90
2018-09-20T17:13:22.668Z,99.90
2018-09-20T17:15:51.107Z,99.90
2018-09-20T17:18:19.613Z,99.90
2018-09-20T17:20:48.079Z,99.90
2018-09-20T17:23:16.519Z,99.90
2018-09-20T17:25:45.135Z,99.90
2018-09-20T17:28:13.598Z,99.90
2018-09-20T17:30:42.115Z,99.90
2018-09-20T17:33:10.615Z,99.90
2018-09-20T17:35:39.959Z,99.90
2018-09-20T17:38:09.600Z,99.90
2018-09-20T17:40:39.918Z,99.90
2018-09-20T17:43:11.084Z,99.90
2018-09-20T17:45:39.644Z,99.90
2018-09-20T17:48:08.188Z,99.90
2018-09-20T17:50:36.665Z,99.90
2018-09-20T17:53:05.626Z,99.90
2018-09-20T17:55:34.942Z,99.90
2018-09-20T17:58:03.618Z,99.90
2018-09-20T18:00:32.115Z,99.90
2018-09-20T18:03:00.683Z,99.90
2018-09-20T18:05:29.193Z,99.90
2018-09-20T18:07:57.667Z,99.90
2018-09-20T18:10:26.199Z,99.90
2018-09-20T18:12:54.712Z,99.90
2018-09-20T18:15:23.181Z,99.90
2018-09-20T18:17:51.991Z,99.90
2018-09-20T18:20:20.437Z,99.90
2018-09-20T18:22:48.938Z,99.90
2018-09-20T18:25:17.619Z,99.90
2018-09-20T18:27:46.350Z,99.90
2018-09-20T18:30:14.856Z,99.90
2018-09-20T18:32:43.347Z,99.90
2018-09-20T18:35:11.880Z,99.90
2018-09-20T18:37:41.062Z,99.90
2018-09-20T18:40:09.765Z,99.90
2018-09-20T18:42:38.476Z,99.90
2018-09-20T18:45:07.127Z,99.90
2018-09-20T18:47:35.702Z,99.90
2018-09-20T18:50:04.294Z,99.90
2018-09-20T18:52:32.738Z,99.90
2018-09-20T18:55:01.275Z,99.90
2018-09-20T18:57:29.742Z,99.90
2018-09-20T18:59:58.267Z,1.00
2018-09-20T19:02:26.719Z,99.90
2018-09-20T19:04:55.285Z,99.90
2018-09-20T19:07:23.760Z,99.90
2018-09-20T19:09:52.274Z,1.00
2018-09-20T19:12:20.809Z,99.90
2018-09-20T19:14:49.325Z,99.90
2018-09-20T19:17:17.780Z,99.90
2018-09-20T19:19:46.350Z,1.00
2018-09-20T19:22:14.824Z,99.90
2018-09-20T19:24:43.385Z,99.90
2018-09-20T19:27:11.858Z,99.90
2018-09-20T19:29:40.357Z,1.00
2018-09-20T19:32:08.918Z,99.90
2018-09-20T19:34:37.498Z,62.10
2018-09-20T19:37:06.056Z,1.00
2018-09-20T19:39:34.559Z,1.00
2018-09-20T19:42:03.166Z,81.30
2018-09-20T19:44:31.750Z,1.00
2018-09-20T19:47:00.229Z,46.90
2018-09-20T19:49:28.844Z,99.90
2018-09-20T19:51:57.428Z,99.90
2018-09-20T19:54:25.894Z,99.90
2018-09-20T19:56:54.441Z,99.90
2018-09-20T19:59:22.966Z,1.00
2018-09-20T20:01:51.559Z,99.90
2018-09-20T20:04:20.130Z,1.00
2018-09-20T20:06:48.723Z,1.00
2018-09-20T20:09:17.275Z,1.00
2018-09-20T20:11:45.912Z,1.00
2018-09-20T20:14:14.398Z,1.00
2018-09-20T20:16:42.876Z,99.90
2018-09-20T20:19:11.390Z,99.90
2018-09-20T20:21:39.860Z,99.90
2018-09-20T20:24:08.371Z,1.00
2018-09-20T20:26:36.868Z,1.00
2018-09-20T20:29:05.683Z,99.90
2018-09-20T20:31:34.231Z,1.00
2018-09-20T20:34:02.758Z,1.00
2018-09-20T20:36:31.272Z,1.00
2018-09-20T20:38:59.751Z,1.00
2018-09-20T20:41:28.231Z,1.00
2018-09-20T20:43:56.707Z,1.00
2018-09-20T20:46:25.221Z,1.00
2018-09-20T20:48:53.684Z,99.90
2018-09-20T20:51:22.189Z,1.00
2018-09-20T20:53:50.665Z,1.00
2018-09-20T20:56:19.125Z,1.00
2018-09-20T20:58:47.684Z,1.00
2018-09-20T21:01:19.636Z,1.00
2018-09-20T21:03:48.840Z,1.00
2018-09-20T21:06:18.032Z,99.90
2018-09-20T21:08:47.165Z,99.90
2018-09-20T21:11:16.007Z,1.00
2018-09-20T21:13:44.513Z,99.90
2018-09-20T21:16:12.993Z,99.90
2018-09-20T21:18:41.773Z,1.00
2018-09-20T21:21:10.269Z,1.00
2018-09-20T21:23:38.821Z,99.90
2018-09-20T21:26:07.393Z,99.90
2018-09-20T21:28:35.827Z,99.90
2018-09-20T21:31:04.407Z,99.90
2018-09-20T21:33:32.894Z,99.90
2018-09-20T21:36:01.371Z,1.00
2018-09-20T21:38:29.812Z,1.00
2018-09-20T21:40:58.295Z,99.90
2018-09-20T21:43:26.946Z,99.90
2018-09-20T21:45:55.618Z,1.00
2018-09-20T21:48:24.074Z,99.90
2018-09-20T21:50:52.610Z,41.00
2018-09-20T21:53:21.231Z,99.90
2018-09-20T21:55:49.832Z,1.00
2018-09-20T21:58:18.325Z,1.00
2018-09-20T22:00:46.787Z,1.00
2018-09-20T22:03:15.271Z,1.00
2018-09-20T22:05:43.782Z,1.00
2018-09-20T22:08:12.270Z,1.00
2018-09-20T22:10:40.729Z,1.00
2018-09-20T22:13:09.228Z,1.00
2018-09-20T22:15:37.675Z,1.00
2018-09-20T22:18:06.162Z,1.00
2018-09-20T22:20:34.642Z,99.90
2018-09-20T22:23:03.486Z,99.90
2018-09-20T22:25:31.927Z,1.00
2018-09-20T22:28:00.378Z,1.00
2018-09-20T22:30:28.831Z,99.90
2018-09-20T22:32:57.286Z,99.90
2018-09-20T22:35:25.812Z,99.90
2018-09-20T22:37:54.284Z,28.90
2018-09-20T22:40:22.763Z,99.90
2018-09-20T22:42:51.359Z,99.90
2018-09-20T22:45:19.832Z,1.00
2018-09-20T22:47:48.258Z,1.00
2018-09-20T22:50:16.723Z,1.00
2018-09-20T22:52:45.295Z,1.00
2018-09-20T22:55:13.770Z,1.00
2018-09-20T22:57:42.223Z,1.00
2018-09-20T23:00:10.711Z,1.00
2018-09-20T23:02:39.180Z,1.00
2018-09-20T23:05:07.682Z,1.00
2018-09-20T23:07:36.132Z,6.40
2018-09-20T23:10:04.665Z,1.00
2018-09-20T23:12:33.146Z,1.00
2018-09-20T23:15:01.590Z,23.50
2018-09-20T23:17:30.091Z,17.40
2018-09-20T23:19:58.519Z,35.30
2018-09-20T23:22:26.990Z,1.00
2018-09-20T23:24:55.463Z,6.20
2018-09-20T23:27:23.927Z,3.10
2018-09-20T23:29:52.379Z,13.10
2018-09-20T23:32:20.843Z,6.10
2018-09-20T23:34:49.292Z,1.30
2018-09-20T23:37:17.771Z,1.00
2018-09-20T23:39:46.270Z,1.00
2018-09-20T23:42:14.771Z,1.00
2018-09-20T23:44:43.233Z,1.00
2018-09-20T23:47:11.686Z,1.00
2018-09-20T23:49:40.142Z,1.00
2018-09-20T23:52:08.599Z,1.00
2018-09-20T23:54:37.102Z,1.00
2018-09-20T23:57:05.608Z,1.00
2018-09-20T23:59:34.189Z,1.00
